sensor_id;sensor_type;location;lat;lon;timestamp;pressure;altitude;pressure_sealevel;temperature
9985;BMP180;16737;50.932;6.780;2023-06-05T00:00:12;100751.00;;;21.10
9985;BMP180;16737;50.932;6.780;2023-06-05T00:02:40;100766.00;;;21.10
9985;BMP180;16737;50.932;6.780;2023-06-05T00:05:07;100771.00;;;21.10
9985;BMP180;16737;50.932;6.780;2023-06-05T00:07:35;100758.00;;;21.00
9985;BMP180;16737;50.932;6.780;2023-06-05T00:10:05;100759.00;;;21.00
9985;BMP180;16737;50.932;6.780;2023-06-05T00:12:33;100762.00;;;21.00
9985;BMP180;16737;50.932;6.780;2023-06-05T00:15:00;100767.00;;;20.90
9985;BMP180;16737;50.932;6.780;2023-06-05T00:17:29;100772.00;;;20.90
9985;BMP180;16737;50.932;6.780;2023-06-05T00:19:57;100768.00;;;20.90
9985;BMP180;16737;50.932;6.780;2023-06-05T00:22:26;100763.00;;;20.90
9985;BMP180;16737;50.932;6.780;2023-06-05T00:24:53;100767.00;;;20.80
9985;BMP180;16737;50.932;6.780;2023-06-05T00:27:20;100769.00;;;20.80
9985;BMP180;16737;50.932;6.780;2023-06-05T00:29:48;100768.00;;;20.80
9985;BMP180;16737;50.932;6.780;2023-06-05T00:32:15;100771.00;;;20.80
9985;BMP180;16737;50.932;6.780;2023-06-05T00:34:43;100769.00;;;20.80
9985;BMP180;16737;50.932;6.780;2023-06-05T00:37:11;100749.00;;;20.80
9985;BMP180;16737;50.932;6.780;2023-06-05T00:39:39;100763.00;;;20.70
9985;BMP180;16737;50.932;6.780;2023-06-05T00:42:07;100759.00;;;20.70
9985;BMP180;16737;50.932;6.780;2023-06-05T00:44:34;100755.00;;;20.70
9985;BMP180;16737;50.932;6.780;2023-06-05T00:47:02;100749.00;;;20.60
9985;BMP180;16737;50.932;6.780;2023-06-05T00:49:30;100760.00;;;20.60
9985;BMP180;16737;50.932;6.780;2023-06-05T00:51:59;100764.00;;;20.60
9985;BMP180;16737;50.932;6.780;2023-06-05T00:54:26;100764.00;;;20.60
9985;BMP180;16737;50.932;6.780;2023-06-05T00:56:54;100746.00;;;20.50
9985;BMP180;16737;50.932;6.780;2023-06-05T00:59:21;100756.00;;;20.50
9985;BMP180;16737;50.932;6.780;2023-06-05T01:01:48;100759.00;;;20.40
9985;BMP180;16737;50.932;6.780;2023-06-05T01:04:18;100749.00;;;20.40
9985;BMP180;16737;50.932;6.780;2023-06-05T01:06:45;100758.00;;;20.40
9985;BMP180;16737;50.932;6.780;2023-06-05T01:09:13;100755.00;;;20.30
9985;BMP180;16737;50.932;6.780;2023-06-05T01:11:46;100748.00;;;20.30
9985;BMP180;16737;50.932;6.780;2023-06-05T01:14:21;100754.00;;;20.20
9985;BMP180;16737;50.932;6.780;2023-06-05T01:16:50;100757.00;;;20.20
9985;BMP180;16737;50.932;6.780;2023-06-05T01:19:20;100748.00;;;20.20
9985;BMP180;16737;50.932;6.780;2023-06-05T01:21:50;100743.00;;;20.20
9985;BMP180;16737;50.932;6.780;2023-06-05T01:24:19;100741.00;;;20.10
9985;BMP180;16737;50.932;6.780;2023-06-05T01:26:59;100751.00;;;20.00
9985;BMP180;16737;50.932;6.780;2023-06-05T01:29:42;100749.00;;;20.00
9985;BMP180;16737;50.932;6.780;2023-06-05T01:32:22;100748.00;;;20.00
9985;BMP180;16737;50.932;6.780;2023-06-05T01:34:53;100744.00;;;19.90
9985;BMP180;16737;50.932;6.780;2023-06-05T01:37:22;100723.00;;;19.90
9985;BMP180;16737;50.932;6.780;2023-06-05T01:39:54;100744.00;;;19.90
9985;BMP180;16737;50.932;6.780;2023-06-05T01:42:24;100751.00;;;19.80
9985;BMP180;16737;50.932;6.780;2023-06-05T01:44:52;100735.00;;;19.80
9985;BMP180;16737;50.932;6.780;2023-06-05T01:47:19;100737.00;;;19.80
9985;BMP180;16737;50.932;6.780;2023-06-05T01:49:47;100733.00;;;19.80
9985;BMP180;16737;50.932;6.780;2023-06-05T01:52:14;100736.00;;;19.70
9985;BMP180;16737;50.932;6.780;2023-06-05T01:54:41;100729.00;;;19.70
9985;BMP180;16737;50.932;6.780;2023-06-05T01:57:09;100726.00;;;19.70
9985;BMP180;16737;50.932;6.780;2023-06-05T01:59:37;100726.00;;;19.70
9985;BMP180;16737;50.932;6.780;2023-06-05T02:02:05;100727.00;;;19.60
9985;BMP180;16737;50.932;6.780;2023-06-05T02:04:32;100728.00;;;19.60
9985;BMP180;16737;50.932;6.780;2023-06-05T02:07:00;100732.00;;;19.50
9985;BMP180;16737;50.932;6.780;2023-06-05T02:09:29;100730.00;;;19.50
9985;BMP180;16737;50.932;6.780;2023-06-05T02:11:58;100727.00;;;19.40
9985;BMP180;16737;50.932;6.780;2023-06-05T02:14:31;100721.00;;;19.40
9985;BMP180;16737;50.932;6.780;2023-06-05T02:17:01;100731.00;;;19.40
9985;BMP180;16737;50.932;6.780;2023-06-05T02:19:29;100723.00;;;19.40
9985;BMP180;16737;50.932;6.780;2023-06-05T02:21:56;100716.00;;;19.30
9985;BMP180;16737;50.932;6.780;2023-06-05T02:24:23;100722.00;;;19.30
9985;BMP180;16737;50.932;6.780;2023-06-05T02:26:50;100709.00;;;19.30
9985;BMP180;16737;50.932;6.780;2023-06-05T02:29:18;100708.00;;;19.30
9985;BMP180;16737;50.932;6.780;2023-06-05T02:31:46;100717.00;;;19.20
9985;BMP180;16737;50.932;6.780;2023-06-05T02:34:13;100707.00;;;19.20
9985;BMP180;16737;50.932;6.780;2023-06-05T02:36:42;100714.00;;;19.20
9985;BMP180;16737;50.932;6.780;2023-06-05T02:39:11;100712.00;;;19.20
9985;BMP180;16737;50.932;6.780;2023-06-05T02:41:38;100697.00;;;19.10
9985;BMP180;16737;50.932;6.780;2023-06-05T02:44:05;100719.00;;;19.10
9985;BMP180;16737;50.932;6.780;2023-06-05T02:46:32;100702.00;;;19.10
9985;BMP180;16737;50.932;6.780;2023-06-05T02:49:00;100703.00;;;19.10
9985;BMP180;16737;50.932;6.780;2023-06-05T02:51:27;100711.00;;;19.10
9985;BMP180;16737;50.932;6.780;2023-06-05T02:53:54;100708.00;;;19.00
9985;BMP180;16737;50.932;6.780;2023-06-05T02:56:21;100701.00;;;19.00
9985;BMP180;16737;50.932;6.780;2023-06-05T02:58:52;100706.00;;;19.00
9985;BMP180;16737;50.932;6.780;2023-06-05T03:01:19;100701.00;;;19.00
9985;BMP180;16737;50.932;6.780;2023-06-05T03:03:48;100699.00;;;18.90
9985;BMP180;16737;50.932;6.780;2023-06-05T03:06:16;100699.00;;;18.90
9985;BMP180;16737;50.932;6.780;2023-06-05T03:08:44;100697.00;;;18.90
9985;BMP180;16737;50.932;6.780;2023-06-05T03:11:11;100701.00;;;18.80
9985;BMP180;16737;50.932;6.780;2023-06-05T03:13:38;100698.00;;;18.80
9985;BMP180;16737;50.932;6.780;2023-06-05T03:16:05;100703.00;;;18.80
9985;BMP180;16737;50.932;6.780;2023-06-05T03:18:33;100694.00;;;18.80
9985;BMP180;16737;50.932;6.780;2023-06-05T03:21:00;100694.00;;;18.70
9985;BMP180;16737;50.932;6.780;2023-06-05T03:23:29;100694.00;;;18.70
9985;BMP180;16737;50.932;6.780;2023-06-05T03:25:56;100698.00;;;18.70
9985;BMP180;16737;50.932;6.780;2023-06-05T03:28:24;100673.00;;;18.70
9985;BMP180;16737;50.932;6.780;2023-06-05T03:30:51;100699.00;;;18.70
9985;BMP180;16737;50.932;6.780;2023-06-05T03:33:17;100690.00;;;18.60
9985;BMP180;16737;50.932;6.780;2023-06-05T03:35:44;100698.00;;;18.60
9985;BMP180;16737;50.932;6.780;2023-06-05T03:38:12;100697.00;;;18.60
9985;BMP180;16737;50.932;6.780;2023-06-05T03:40:41;100702.00;;;18.60
9985;BMP180;16737;50.932;6.780;2023-06-05T03:43:08;100692.00;;;18.60
9985;BMP180;16737;50.932;6.780;2023-06-05T03:45:37;100705.00;;;18.60
9985;BMP180;16737;50.932;6.780;2023-06-05T03:48:05;100687.00;;;18.60
9985;BMP180;16737;50.932;6.780;2023-06-05T03:50:32;100703.00;;;18.50
9985;BMP180;16737;50.932;6.780;2023-06-05T03:53:04;100706.00;;;18.50
9985;BMP180;16737;50.932;6.780;2023-06-05T03:55:31;100704.00;;;18.50
9985;BMP180;16737;50.932;6.780;2023-06-05T03:58:04;100700.00;;;18.50
9985;BMP180;16737;50.932;6.780;2023-06-05T04:00:31;100690.00;;;18.50
9985;BMP180;16737;50.932;6.780;2023-06-05T04:02:59;100691.00;;;18.50
9985;BMP180;16737;50.932;6.780;2023-06-05T04:05:25;100692.00;;;18.50
9985;BMP180;16737;50.932;6.780;2023-06-05T04:07:52;100703.00;;;18.50
9985;BMP180;16737;50.932;6.780;2023-06-05T04:10:19;100704.00;;;18.50
9985;BMP180;16737;50.932;6.780;2023-06-05T04:12:46;100705.00;;;18.50
9985;BMP180;16737;50.932;6.780;2023-06-05T04:15:15;100708.00;;;18.40
9985;BMP180;16737;50.932;6.780;2023-06-05T04:17:42;100704.00;;;18.40
9985;BMP180;16737;50.932;6.780;2023-06-05T04:20:10;100699.00;;;18.40
9985;BMP180;16737;50.932;6.780;2023-06-05T04:22:40;100701.00;;;18.40
9985;BMP180;16737;50.932;6.780;2023-06-05T04:25:08;100709.00;;;18.40
9985;BMP180;16737;50.932;6.780;2023-06-05T04:27:37;100715.00;;;18.40
9985;BMP180;16737;50.932;6.780;2023-06-05T04:30:06;100708.00;;;18.40
9985;BMP180;16737;50.932;6.780;2023-06-05T04:32:36;100687.00;;;18.40
9985;BMP180;16737;50.932;6.780;2023-06-05T04:35:04;100700.00;;;18.40
9985;BMP180;16737;50.932;6.780;2023-06-05T04:37:32;100701.00;;;18.40
9985;BMP180;16737;50.932;6.780;2023-06-05T04:39:59;100702.00;;;18.40
9985;BMP180;16737;50.932;6.780;2023-06-05T04:42:26;100706.00;;;18.40
9985;BMP180;16737;50.932;6.780;2023-06-05T04:44:57;100712.00;;;18.40
9985;BMP180;16737;50.932;6.780;2023-06-05T04:47:24;100701.00;;;18.40
9985;BMP180;16737;50.932;6.780;2023-06-05T04:49:53;100703.00;;;18.40
9985;BMP180;16737;50.932;6.780;2023-06-05T04:52:21;100676.00;;;18.40
9985;BMP180;16737;50.932;6.780;2023-06-05T04:54:49;100709.00;;;18.40
9985;BMP180;16737;50.932;6.780;2023-06-05T04:57:16;100707.00;;;18.40
9985;BMP180;16737;50.932;6.780;2023-06-05T04:59:44;100710.00;;;18.40
9985;BMP180;16737;50.932;6.780;2023-06-05T05:02:12;100709.00;;;18.50
9985;BMP180;16737;50.932;6.780;2023-06-05T05:04:39;100704.00;;;18.50
9985;BMP180;16737;50.932;6.780;2023-06-05T05:07:08;100707.00;;;18.50
9985;BMP180;16737;50.932;6.780;2023-06-05T05:09:40;100693.00;;;18.50
9985;BMP180;16737;50.932;6.780;2023-06-05T05:12:08;100708.00;;;18.60
9985;BMP180;16737;50.932;6.780;2023-06-05T05:14:35;100707.00;;;18.50
9985;BMP180;16737;50.932;6.780;2023-06-05T05:17:03;100714.00;;;18.60
9985;BMP180;16737;50.932;6.780;2023-06-05T05:19:30;100721.00;;;18.60
9985;BMP180;16737;50.932;6.780;2023-06-05T05:21:58;100715.00;;;18.60
9985;BMP180;16737;50.932;6.780;2023-06-05T05:24:26;100723.00;;;18.60
9985;BMP180;16737;50.932;6.780;2023-06-05T05:26:53;100722.00;;;18.60
9985;BMP180;16737;50.932;6.780;2023-06-05T05:29:20;100711.00;;;18.70
9985;BMP180;16737;50.932;6.780;2023-06-05T05:31:47;100722.00;;;18.70
9985;BMP180;16737;50.932;6.780;2023-06-05T05:34:14;100723.00;;;18.70
9985;BMP180;16737;50.932;6.780;2023-06-05T05:36:41;100721.00;;;18.80
9985;BMP180;16737;50.932;6.780;2023-06-05T05:39:08;100724.00;;;18.80
9985;BMP180;16737;50.932;6.780;2023-06-05T05:41:37;100720.00;;;18.80
9985;BMP180;16737;50.932;6.780;2023-06-05T05:44:04;100721.00;;;18.90
9985;BMP180;16737;50.932;6.780;2023-06-05T05:46:31;100735.00;;;18.90
9985;BMP180;16737;50.932;6.780;2023-06-05T05:48:58;100738.00;;;19.00
9985;BMP180;16737;50.932;6.780;2023-06-05T05:51:24;100734.00;;;19.00
9985;BMP180;16737;50.932;6.780;2023-06-05T05:53:51;100738.00;;;19.00
9985;BMP180;16737;50.932;6.780;2023-06-05T05:56:18;100739.00;;;19.10
9985;BMP180;16737;50.932;6.780;2023-06-05T05:58:46;100730.00;;;19.10
9985;BMP180;16737;50.932;6.780;2023-06-05T06:01:13;100730.00;;;19.20
9985;BMP180;16737;50.932;6.780;2023-06-05T06:03:41;100737.00;;;19.20
9985;BMP180;16737;50.932;6.780;2023-06-05T06:06:08;100725.00;;;19.20
9985;BMP180;16737;50.932;6.780;2023-06-05T06:08:35;100733.00;;;19.30
9985;BMP180;16737;50.932;6.780;2023-06-05T06:11:02;100729.00;;;19.30
9985;BMP180;16737;50.932;6.780;2023-06-05T06:13:31;100732.00;;;19.40
9985;BMP180;16737;50.932;6.780;2023-06-05T06:16:00;100735.00;;;19.40
9985;BMP180;16737;50.932;6.780;2023-06-05T06:18:28;100730.00;;;19.40
9985;BMP180;16737;50.932;6.780;2023-06-05T06:20:55;100735.00;;;19.50
9985;BMP180;16737;50.932;6.780;2023-06-05T06:23:22;100730.00;;;19.50
9985;BMP180;16737;50.932;6.780;2023-06-05T06:25:49;100729.00;;;19.60
9985;BMP180;16737;50.932;6.780;2023-06-05T06:28:17;100733.00;;;19.60
9985;BMP180;16737;50.932;6.780;2023-06-05T06:30:45;100732.00;;;19.70
9985;BMP180;16737;50.932;6.780;2023-06-05T06:33:13;100707.00;;;19.70
9985;BMP180;16737;50.932;6.780;2023-06-05T06:35:40;100743.00;;;19.80
9985;BMP180;16737;50.932;6.780;2023-06-05T06:38:07;100743.00;;;19.90
9985;BMP180;16737;50.932;6.780;2023-06-05T06:40:34;100724.00;;;19.90
9985;BMP180;16737;50.932;6.780;2023-06-05T06:43:03;100743.00;;;20.00
9985;BMP180;16737;50.932;6.780;2023-06-05T06:45:34;100744.00;;;20.10
9985;BMP180;16737;50.932;6.780;2023-06-05T06:48:01;100748.00;;;20.10
9985;BMP180;16737;50.932;6.780;2023-06-05T06:50:29;100736.00;;;20.20
9985;BMP180;16737;50.932;6.780;2023-06-05T06:52:56;100742.00;;;20.20
9985;BMP180;16737;50.932;6.780;2023-06-05T06:55:23;100750.00;;;20.30
9985;BMP180;16737;50.932;6.780;2023-06-05T06:57:50;100754.00;;;20.30
9985;BMP180;16737;50.932;6.780;2023-06-05T07:00:17;100759.00;;;20.40
9985;BMP180;16737;50.932;6.780;2023-06-05T07:02:46;100761.00;;;20.40
9985;BMP180;16737;50.932;6.780;2023-06-05T07:05:13;100742.00;;;20.50
9985;BMP180;16737;50.932;6.780;2023-06-05T07:07:42;100757.00;;;20.60
9985;BMP180;16737;50.932;6.780;2023-06-05T07:10:10;100734.00;;;20.60
9985;BMP180;16737;50.932;6.780;2023-06-05T07:12:37;100761.00;;;20.70
9985;BMP180;16737;50.932;6.780;2023-06-05T07:15:05;100754.00;;;20.80
9985;BMP180;16737;50.932;6.780;2023-06-05T07:17:32;100755.00;;;20.80
9985;BMP180;16737;50.932;6.780;2023-06-05T07:19:59;100763.00;;;20.90
9985;BMP180;16737;50.932;6.780;2023-06-05T07:22:26;100760.00;;;20.90
9985;BMP180;16737;50.932;6.780;2023-06-05T07:24:55;100757.00;;;21.00
9985;BMP180;16737;50.932;6.780;2023-06-05T07:27:22;100755.00;;;21.10
9985;BMP180;16737;50.932;6.780;2023-06-05T07:29:49;100753.00;;;21.10
9985;BMP180;16737;50.932;6.780;2023-06-05T07:32:19;100760.00;;;21.20
9985;BMP180;16737;50.932;6.780;2023-06-05T07:34:46;100764.00;;;21.30
9985;BMP180;16737;50.932;6.780;2023-06-05T07:37:13;100763.00;;;21.30
9985;BMP180;16737;50.932;6.780;2023-06-05T07:39:41;100759.00;;;21.40
9985;BMP180;16737;50.932;6.780;2023-06-05T07:42:09;100764.00;;;21.50
9985;BMP180;16737;50.932;6.780;2023-06-05T07:44:36;100756.00;;;21.50
9985;BMP180;16737;50.932;6.780;2023-06-05T07:47:03;100745.00;;;21.60
9985;BMP180;16737;50.932;6.780;2023-06-05T07:49:30;100754.00;;;21.70
9985;BMP180;16737;50.932;6.780;2023-06-05T07:51:58;100747.00;;;21.80
9985;BMP180;16737;50.932;6.780;2023-06-05T07:54:25;100752.00;;;21.80
9985;BMP180;16737;50.932;6.780;2023-06-05T07:56:52;100746.00;;;21.90
9985;BMP180;16737;50.932;6.780;2023-06-05T07:59:21;100750.00;;;22.00
9985;BMP180;16737;50.932;6.780;2023-06-05T08:01:51;100753.00;;;22.10
9985;BMP180;16737;50.932;6.780;2023-06-05T08:04:17;100754.00;;;22.10
9985;BMP180;16737;50.932;6.780;2023-06-05T08:06:45;100753.00;;;22.30
9985;BMP180;16737;50.932;6.780;2023-06-05T08:09:12;100756.00;;;22.30
9985;BMP180;16737;50.932;6.780;2023-06-05T08:11:39;100751.00;;;22.40
9985;BMP180;16737;50.932;6.780;2023-06-05T08:14:08;100754.00;;;22.50
9985;BMP180;16737;50.932;6.780;2023-06-05T08:16:36;100742.00;;;22.60
9985;BMP180;16737;50.932;6.780;2023-06-05T08:19:04;100727.00;;;22.60
9985;BMP180;16737;50.932;6.780;2023-06-05T08:21:32;100746.00;;;22.70
9985;BMP180;16737;50.932;6.780;2023-06-05T08:23:59;100744.00;;;22.80
9985;BMP180;16737;50.932;6.780;2023-06-05T08:26:26;100721.00;;;22.90
9985;BMP180;16737;50.932;6.780;2023-06-05T08:28:53;100744.00;;;23.00
9985;BMP180;16737;50.932;6.780;2023-06-05T08:31:21;100725.00;;;23.10
9985;BMP180;16737;50.932;6.780;2023-06-05T08:33:50;100734.00;;;23.20
9985;BMP180;16737;50.932;6.780;2023-06-05T08:36:18;100737.00;;;23.30
9985;BMP180;16737;50.932;6.780;2023-06-05T08:38:45;100728.00;;;23.50
9985;BMP180;16737;50.932;6.780;2023-06-05T08:41:14;100724.00;;;23.50
9985;BMP180;16737;50.932;6.780;2023-06-05T08:43:42;100726.00;;;23.70
9985;BMP180;16737;50.932;6.780;2023-06-05T08:46:12;100742.00;;;23.80
9985;BMP180;16737;50.932;6.780;2023-06-05T08:48:43;100739.00;;;23.90
9985;BMP180;16737;50.932;6.780;2023-06-05T08:51:13;100734.00;;;24.00
9985;BMP180;16737;50.932;6.780;2023-06-05T08:53:47;100738.00;;;24.10
9985;BMP180;16737;50.932;6.780;2023-06-05T08:56:17;100722.00;;;24.20
9985;BMP180;16737;50.932;6.780;2023-06-05T08:58:46;100726.00;;;24.30
9985;BMP180;16737;50.932;6.780;2023-06-05T09:01:13;100710.00;;;24.50
9985;BMP180;16737;50.932;6.780;2023-06-05T09:03:40;100720.00;;;24.60
9985;BMP180;16737;50.932;6.780;2023-06-05T09:06:11;100731.00;;;24.60
9985;BMP180;16737;50.932;6.780;2023-06-05T09:08:38;100737.00;;;24.80
9985;BMP180;16737;50.932;6.780;2023-06-05T09:11:25;100727.00;;;24.80
9985;BMP180;16737;50.932;6.780;2023-06-05T09:13:55;100734.00;;;25.00
9985;BMP180;16737;50.932;6.780;2023-06-05T09:16:33;100720.00;;;25.10
9985;BMP180;16737;50.932;6.780;2023-06-05T09:19:01;100722.00;;;25.20
9985;BMP180;16737;50.932;6.780;2023-06-05T09:21:30;100727.00;;;25.30
9985;BMP180;16737;50.932;6.780;2023-06-05T09:24:13;100722.00;;;25.40
9985;BMP180;16737;50.932;6.780;2023-06-05T09:26:50;100716.00;;;25.60
9985;BMP180;16737;50.932;6.780;2023-06-05T09:29:25;100711.00;;;25.70
9985;BMP180;16737;50.932;6.780;2023-06-05T09:31:55;100713.00;;;25.80
9985;BMP180;16737;50.932;6.780;2023-06-05T09:34:25;100712.00;;;25.90
9985;BMP180;16737;50.932;6.780;2023-06-05T09:36:56;100717.00;;;26.10
9985;BMP180;16737;50.932;6.780;2023-06-05T09:39:24;100710.00;;;26.20
9985;BMP180;16737;50.932;6.780;2023-06-05T09:41:53;100700.00;;;26.30
9985;BMP180;16737;50.932;6.780;2023-06-05T09:44:22;100707.00;;;26.40
9985;BMP180;16737;50.932;6.780;2023-06-05T09:46:57;100695.00;;;26.50
9985;BMP180;16737;50.932;6.780;2023-06-05T09:49:28;100695.00;;;26.70
9985;BMP180;16737;50.932;6.780;2023-06-05T09:51:58;100713.00;;;26.80
9985;BMP180;16737;50.932;6.780;2023-06-05T09:54:27;100702.00;;;26.90
9985;BMP180;16737;50.932;6.780;2023-06-05T09:56:59;100707.00;;;27.00
9985;BMP180;16737;50.932;6.780;2023-06-05T09:59:31;100700.00;;;27.10
9985;BMP180;16737;50.932;6.780;2023-06-05T10:02:02;100690.00;;;27.20
9985;BMP180;16737;50.932;6.780;2023-06-05T10:04:38;100696.00;;;27.30
9985;BMP180;16737;50.932;6.780;2023-06-05T10:07:08;100706.00;;;27.40
9985;BMP180;16737;50.932;6.780;2023-06-05T10:09:36;100690.00;;;27.50
9985;BMP180;16737;50.932;6.780;2023-06-05T10:12:05;100692.00;;;27.60
9985;BMP180;16737;50.932;6.780;2023-06-05T10:14:33;100693.00;;;27.70
9985;BMP180;16737;50.932;6.780;2023-06-05T10:17:02;100693.00;;;27.70
9985;BMP180;16737;50.932;6.780;2023-06-05T10:19:30;100693.00;;;27.80
9985;BMP180;16737;50.932;6.780;2023-06-05T10:21:57;100692.00;;;27.90
9985;BMP180;16737;50.932;6.780;2023-06-05T10:24:30;100683.00;;;28.00
9985;BMP180;16737;50.932;6.780;2023-06-05T10:27:43;100684.00;;;28.10
9985;BMP180;16737;50.932;6.780;2023-06-05T10:30:59;100689.00;;;28.20
9985;BMP180;16737;50.932;6.780;2023-06-05T10:33:55;100686.00;;;28.20
9985;BMP180;16737;50.932;6.780;2023-06-05T10:36:50;100676.00;;;28.30
9985;BMP180;16737;50.932;6.780;2023-06-05T10:39:22;100665.00;;;28.40
9985;BMP180;16737;50.932;6.780;2023-06-05T10:41:52;100675.00;;;28.50
9985;BMP180;16737;50.932;6.780;2023-06-05T10:44:38;100685.00;;;28.50
9985;BMP180;16737;50.932;6.780;2023-06-05T10:47:49;100687.00;;;28.60
9985;BMP180;16737;50.932;6.780;2023-06-05T10:50:24;100680.00;;;28.70
9985;BMP180;16737;50.932;6.780;2023-06-05T10:52:54;100677.00;;;28.80
9985;BMP180;16737;50.932;6.780;2023-06-05T10:55:25;100675.00;;;28.80
9985;BMP180;16737;50.932;6.780;2023-06-05T10:58:09;100675.00;;;28.90
9985;BMP180;16737;50.932;6.780;2023-06-05T11:00:38;100679.00;;;29.00
9985;BMP180;16737;50.932;6.780;2023-06-05T11:03:05;100671.00;;;29.00
9985;BMP180;16737;50.932;6.780;2023-06-05T11:05:35;100656.00;;;29.10
9985;BMP180;16737;50.932;6.780;2023-06-05T11:08:13;100679.00;;;29.20
9985;BMP180;16737;50.932;6.780;2023-06-05T11:11:03;100673.00;;;29.20
9985;BMP180;16737;50.932;6.780;2023-06-05T11:13:53;100662.00;;;29.20
9985;BMP180;16737;50.932;6.780;2023-06-05T11:16:28;100669.00;;;29.30
9985;BMP180;16737;50.932;6.780;2023-06-05T11:19:36;100666.00;;;29.40
9985;BMP180;16737;50.932;6.780;2023-06-05T11:22:13;100662.00;;;29.50
9985;BMP180;16737;50.932;6.780;2023-06-05T11:24:39;100666.00;;;29.60
9985;BMP180;16737;50.932;6.780;2023-06-05T11:27:06;100660.00;;;29.70
9985;BMP180;16737;50.932;6.780;2023-06-05T11:29:37;100662.00;;;29.70
9985;BMP180;16737;50.932;6.780;2023-06-05T11:32:11;100655.00;;;29.80
9985;BMP180;16737;50.932;6.780;2023-06-05T11:34:39;100656.00;;;29.90
9985;BMP180;16737;50.932;6.780;2023-06-05T11:37:18;100648.00;;;30.00
9985;BMP180;16737;50.932;6.780;2023-06-05T11:39:45;100654.00;;;30.10
9985;BMP180;16737;50.932;6.780;2023-06-05T11:42:11;100654.00;;;30.10
9985;BMP180;16737;50.932;6.780;2023-06-05T11:44:40;100647.00;;;30.20
9985;BMP180;16737;50.932;6.780;2023-06-05T11:47:07;100641.00;;;30.20
9985;BMP180;16737;50.932;6.780;2023-06-05T11:49:48;100640.00;;;30.30
9985;BMP180;16737;50.932;6.780;2023-06-05T11:52:18;100637.00;;;30.30
9985;BMP180;16737;50.932;6.780;2023-06-05T11:54:46;100641.00;;;30.40
9985;BMP180;16737;50.932;6.780;2023-06-05T11:57:39;100641.00;;;30.40
9985;BMP180;16737;50.932;6.780;2023-06-05T12:00:11;100637.00;;;30.50
9985;BMP180;16737;50.932;6.780;2023-06-05T12:02:39;100632.00;;;30.50
9985;BMP180;16737;50.932;6.780;2023-06-05T12:05:08;100631.00;;;30.60
9985;BMP180;16737;50.932;6.780;2023-06-05T12:07:36;100630.00;;;30.60
9985;BMP180;16737;50.932;6.780;2023-06-05T12:10:07;100633.00;;;30.70
9985;BMP180;16737;50.932;6.780;2023-06-05T12:12:34;100628.00;;;30.80
9985;BMP180;16737;50.932;6.780;2023-06-05T12:15:15;100628.00;;;30.80
9985;BMP180;16737;50.932;6.780;2023-06-05T12:17:49;100631.00;;;30.90
9985;BMP180;16737;50.932;6.780;2023-06-05T12:20:16;100621.00;;;30.90
9985;BMP180;16737;50.932;6.780;2023-06-05T12:22:44;100627.00;;;31.00
9985;BMP180;16737;50.932;6.780;2023-06-05T12:25:17;100623.00;;;31.10
9985;BMP180;16737;50.932;6.780;2023-06-05T12:27:45;100617.00;;;31.10
9985;BMP180;16737;50.932;6.780;2023-06-05T12:30:14;100616.00;;;31.20
9985;BMP180;16737;50.932;6.780;2023-06-05T12:32:43;100619.00;;;31.20
9985;BMP180;16737;50.932;6.780;2023-06-05T12:35:18;100623.00;;;31.20
9985;BMP180;16737;50.932;6.780;2023-06-05T12:37:45;100621.00;;;31.20
9985;BMP180;16737;50.932;6.780;2023-06-05T12:40:13;100614.00;;;31.30
9985;BMP180;16737;50.932;6.780;2023-06-05T12:42:43;100622.00;;;31.20
9985;BMP180;16737;50.932;6.780;2023-06-05T12:45:11;100620.00;;;31.30
9985;BMP180;16737;50.932;6.780;2023-06-05T12:47:41;100611.00;;;31.40
9985;BMP180;16737;50.932;6.780;2023-06-05T12:50:11;100609.00;;;31.40
9985;BMP180;16737;50.932;6.780;2023-06-05T12:52:38;100590.00;;;31.40
9985;BMP180;16737;50.932;6.780;2023-06-05T12:55:07;100594.00;;;31.50
9985;BMP180;16737;50.932;6.780;2023-06-05T12:57:34;100600.00;;;31.40
9985;BMP180;16737;50.932;6.780;2023-06-05T13:00:04;100577.00;;;31.40
9985;BMP180;16737;50.932;6.780;2023-06-05T13:02:42;100589.00;;;31.40
9985;BMP180;16737;50.932;6.780;2023-06-05T13:05:11;100601.00;;;31.40
9985;BMP180;16737;50.932;6.780;2023-06-05T13:07:38;100580.00;;;31.40
9985;BMP180;16737;50.932;6.780;2023-06-05T13:10:07;100596.00;;;31.40
9985;BMP180;16737;50.932;6.780;2023-06-05T13:12:34;100587.00;;;31.40
9985;BMP180;16737;50.932;6.780;2023-06-05T13:15:01;100593.00;;;31.40
9985;BMP180;16737;50.932;6.780;2023-06-05T13:17:29;100565.00;;;31.40
9985;BMP180;16737;50.932;6.780;2023-06-05T13:20:02;100588.00;;;31.50
9985;BMP180;16737;50.932;6.780;2023-06-05T13:22:32;100580.00;;;31.50
9985;BMP180;16737;50.932;6.780;2023-06-05T13:24:59;100587.00;;;31.50
9985;BMP180;16737;50.932;6.780;2023-06-05T13:27:26;100578.00;;;31.50
9985;BMP180;16737;50.932;6.780;2023-06-05T13:29:53;100574.00;;;31.50
9985;BMP180;16737;50.932;6.780;2023-06-05T13:32:20;100572.00;;;31.50
9985;BMP180;16737;50.932;6.780;2023-06-05T13:34:47;100576.00;;;31.50
9985;BMP180;16737;50.932;6.780;2023-06-05T13:37:15;100565.00;;;31.50
9985;BMP180;16737;50.932;6.780;2023-06-05T13:39:42;100562.00;;;31.50
9985;BMP180;16737;50.932;6.780;2023-06-05T13:42:09;100568.00;;;31.50
9985;BMP180;16737;50.932;6.780;2023-06-05T13:44:37;100561.00;;;31.50
9985;BMP180;16737;50.932;6.780;2023-06-05T13:47:04;100558.00;;;31.50
9985;BMP180;16737;50.932;6.780;2023-06-05T13:49:34;100555.00;;;31.50
9985;BMP180;16737;50.932;6.780;2023-06-05T13:52:01;100556.00;;;31.50
9985;BMP180;16737;50.932;6.780;2023-06-05T13:54:29;100552.00;;;31.50
9985;BMP180;16737;50.932;6.780;2023-06-05T13:56:56;100557.00;;;31.60
9985;BMP180;16737;50.932;6.780;2023-06-05T13:59:24;100555.00;;;31.60
9985;BMP180;16737;50.932;6.780;2023-06-05T14:01:52;100553.00;;;31.60
9985;BMP180;16737;50.932;6.780;2023-06-05T14:04:19;100557.00;;;31.60
9985;BMP180;16737;50.932;6.780;2023-06-05T14:06:47;100548.00;;;31.50
9985;BMP180;16737;50.932;6.780;2023-06-05T14:09:14;100546.00;;;31.50
9985;BMP180;16737;50.932;6.780;2023-06-05T14:11:42;100539.00;;;31.60
9985;BMP180;16737;50.932;6.780;2023-06-05T14:14:10;100551.00;;;31.60
9985;BMP180;16737;50.932;6.780;2023-06-05T14:16:37;100541.00;;;31.60
9985;BMP180;16737;50.932;6.780;2023-06-05T14:19:04;100546.00;;;31.60
9985;BMP180;16737;50.932;6.780;2023-06-05T14:21:31;100544.00;;;31.50